Accueil
METAR-TAF:

METAR-TAF

Aéroports :

Aéroport de Gran Canaria

Grande Canarie, Espagne

latitude: 27-56N, longitude: 015-23W, altitude: 23 m

Observation

Le bulletin a été fait il y a 37 minutes, à 17:30 UTC
Vent 14 kt de nord-est
Température 23°C
Humidité 73%
Pression 1016 hPa
Visibilité 10 km ou plus
Quelques nuages à une hauteur de 2500 ft

METAR: GCLP 191730Z 04014KT 9999 FEW025 23/18 Q1016 NOSIG

Heure: 19:07 (18:07 UTC)

Prévision

Le bulletin a été fait il y a 4 heures et 7 minutes, à 14:00 UTC
Prévision valable du 19 à 15 UTC au 20 à 15 UTC
Vent 15 kt de nord-est
Visibilité 10 km ou plus
Quelques nuages à une hauteur de 2500 ft
Evoluant progressivement
du 19 à 19 UTC au 19 à 21 UTC
Vent 10 kt de nord/nord-ouest

TAF: GCLP 191400Z 1915/2015 04015KT 9999 FEW025 TX26/2015Z TN19/2005Z BECMG 1919/1921 34010KT

Observations et prévisions météorologiques de plus de 4000 aéroports (messages METAR et TAF).

Les stations disponibles sont représentées par des disques jaunes et rouges sur la carte.

Passer la souris dessus pour voir le nom de la station.

Cliquer dessus pour voir les observations et prévisions météorologiques.

Pour changer de carte: cliquez sur les boutons verts avec une croix noire pour zoomer, sur le bouton vert avec un tiret pour effectuer un zoom arrière, ou sur les flèches vertes pour les cartes adjacentes.


METAR-TAF: